Wednesday, May 23, 2018, 11:18 PM CDT
Back to Local

KORD, Chicago O'hare International

Location: Des Plaines, IL, United States Lat: 41.983
Local Time: 11:18 PM CDT ( 4:18 GMT) Lon: -87.917
Time Zone: US/Central Elev: 669 ft

Show me the last for .
Show Decoded

2018-05-23 22:51 METAR KORD 240351Z 10004KT 10SM FEW250 17/10 A3018 RMK AO2 SLP218 T01720100 =
2018-05-23 21:51 METAR KORD 240251Z 10004KT 10SM FEW250 18/10 A3018 RMK AO2 SLP218 T01780100
                 53015 =
2018-05-23 20:51 METAR KORD 240151Z 08007KT 10SM FEW250 20/08 A3016 RMK AO2 SLP212 T02000083 =
2018-05-23 19:51 METAR KORD 240051Z 10006KT 10SM SCT250 22/08 A3015 RMK AO2 SLP207 T02220083 =
2018-05-23 18:51 METAR KORD 232351Z 10008KT 10SM SCT250 24/08 A3014 RMK AO2 SLP203 T02440083
                 10267 20244 56004 =
2018-05-23 17:51 METAR KORD 232251Z 08008KT 10SM SCT250 26/08 A3014 RMK AO2 SLP203 T02560083 =
2018-05-23 16:51 METAR KORD 232151Z 07008KT 10SM SCT250 26/09 A3014 RMK AO2 SLP205 T02610094 =
2018-05-23 15:51 METAR KORD 232051Z 08008KT 10SM FEW250 26/12 A3015 RMK AO2 SLP207 T02560117
                 58015 =
2018-05-23 14:51 METAR KORD 231951Z 10007KT 10SM SCT250 26/14 A3017 RMK AO2 SLP215 T02610139 =
2018-05-23 13:51 METAR KORD 231851Z 00000KT 10SM SCT250 26/09 A3018 RMK AO2 SLP219 T02560089 =
2018-05-23 12:51 METAR KORD 231751Z VRB03KT 10SM FEW250 24/11 A3020 RMK AO2 SLP223 T02440106
                 10244 20133 55001 =
2018-05-23 11:51 METAR KORD 231651Z 35003KT 10SM FEW250 23/13 A3019 RMK AO2 SLP223 T02330128 =
2018-05-23 10:51 METAR KORD 231551Z 16003KT 10SM FEW250 22/14 A3020 RMK AO2 SLP225 T02170139 =
2018-05-23 09:51 METAR KORD 231451Z 00000KT 8SM FEW200 SCT250 20/14 A3020 RMK AO2 SLP225
                 T02000139 50006 =
2018-05-23 08:51 METAR KORD 231351Z 00000KT 5SM HZ SCT250 18/14 A3020 RMK AO2 SLP226 T01830139 =
2018-05-23 08:40 METAR KORD 231340Z 00000KT 5SM HZ SCT250 18/13 A3020 RMK AO2 T01780133 =
2018-05-23 07:51 METAR KORD 231251Z 24003KT 4SM HZ BKN250 15/12 A3019 RMK AO2 SLP223 T01500122 =
2018-05-23 06:51 METAR KORD 231151Z 22004KT 4SM BR BKN250 13/11 A3018 RMK AO2 SLP220 T01330111
                 10133 20111 53020 =
2018-05-23 05:51 METAR KORD 231051Z 00000KT 4SM BR BKN250 12/10 A3016 RMK AO2 SLP212 T01170100 =
2018-05-23 04:51 METAR KORD 230951Z 00000KT 6SM BR BKN250 11/10 A3014 RMK AO2 SLP204 T01110100 =
2018-05-23 03:51 METAR KORD 230851Z 00000KT 7SM SCT250 12/10 A3012 RMK AO2 SLP199 T01170100 53006
                 =
2018-05-23 02:51 METAR KORD 230751Z 00000KT 7SM SCT250 12/10 A3010 RMK AO2 SLP193 T01170100 =
2018-05-23 01:51 METAR KORD 230651Z 00000KT 8SM FEW250 12/10 A3010 RMK AO2 SLP192 T01170100 =
2018-05-23 00:51 METAR KORD 230551Z 19003KT 8SM CLR 12/11 A3010 RMK AO2 SLP192 T01220106 10183
                 20122 401940122 53005 =
2018-05-22 23:51 METAR KORD 230451Z 00000KT 8SM CLR 12/11 A3009 RMK AO2 SLP190 T01220106 =

Support USWX by starting your Amazon purchase here.